createdAt,value
2023-04-26T00:00:11.347Z,80.9977
2023-04-26T00:01:12.042Z,81.0245
2023-04-26T00:02:12.797Z,81.0551
2023-04-26T00:03:13.628Z,81.0908
2023-04-26T00:04:14.817Z,81.1326
2023-04-26T00:05:15.742Z,81.1770
2023-04-26T00:06:16.455Z,81.2363
2023-04-26T00:07:17.138Z,81.3189
2023-04-26T00:08:17.776Z,81.3892
2023-04-26T00:09:18.505Z,81.4615
2023-04-26T00:10:19.171Z,81.5312
2023-04-26T00:11:19.835Z,81.6005
2023-04-26T00:12:20.542Z,81.6491
2023-04-26T00:13:21.260Z,81.7068
2023-04-26T00:14:21.900Z,81.7895
2023-04-26T00:15:22.584Z,81.8622
2023-04-26T00:16:23.255Z,81.9380
2023-04-26T00:17:23.896Z,81.9792
2023-04-26T00:18:24.516Z,82.0218
2023-04-26T00:19:25.159Z,82.0620
2023-04-26T00:20:25.787Z,82.0778
2023-04-26T00:21:26.439Z,82.0862
2023-04-26T00:22:27.052Z,82.1017
2023-04-26T00:23:27.730Z,82.1183
2023-04-26T00:24:28.468Z,82.1441
2023-04-26T00:25:29.130Z,82.1768
2023-04-26T00:26:29.773Z,82.2174
2023-04-26T00:27:30.430Z,82.2611
2023-04-26T00:28:31.045Z,82.2910
2023-04-26T00:29:31.748Z,82.3220
2023-04-26T00:30:32.445Z,82.3942
2023-04-26T00:31:33.107Z,82.5052
2023-04-26T00:32:33.751Z,82.5831
2023-04-26T00:33:34.475Z,82.6791
2023-04-26T00:34:35.167Z,82.7552
2023-04-26T00:35:35.834Z,82.7947
2023-04-26T00:36:36.608Z,82.8047
2023-04-26T00:37:37.336Z,82.8113
2023-04-26T00:38:37.960Z,82.8202
2023-04-26T00:39:38.700Z,82.8176
2023-04-26T00:40:39.374Z,82.8211
2023-04-26T00:41:40.084Z,82.8350
2023-04-26T00:42:40.741Z,82.8397
2023-04-26T00:43:41.426Z,82.8350
2023-04-26T00:44:42.110Z,82.8499
2023-04-26T00:45:42.839Z,82.8876
2023-04-26T00:46:43.471Z,82.8837
2023-04-26T00:47:44.162Z,82.8805
2023-04-26T00:48:44.790Z,82.8607
2023-04-26T00:49:45.483Z,82.8425
2023-04-26T00:50:46.159Z,82.8242
2023-04-26T00:51:46.829Z,82.8159
2023-04-26T00:52:47.558Z,82.8111
2023-04-26T00:53:48.210Z,82.8061
2023-04-26T00:54:48.939Z,82.8028
2023-04-26T00:55:49.661Z,82.8101
2023-04-26T00:56:50.348Z,82.8088
2023-04-26T00:57:51.000Z,82.8081
2023-04-26T00:58:51.870Z,82.8086
2023-04-26T00:59:52.828Z,82.8156
2023-04-26T01:00:53.811Z,82.8359
2023-04-26T01:01:54.530Z,82.8311
2023-04-26T01:02:55.314Z,82.8216
2023-04-26T01:03:56.131Z,82.8140
2023-04-26T01:04:57.037Z,82.8117
2023-04-26T01:05:57.688Z,82.8041
2023-04-26T01:06:58.390Z,82.8040
2023-04-26T01:07:59.102Z,82.7986
2023-04-26T01:08:59.773Z,82.7965
2023-04-26T01:10:00.464Z,82.7883
2023-04-26T01:11:01.157Z,82.7868
2023-04-26T01:12:01.867Z,82.7838
2023-04-26T01:13:02.582Z,82.7723
2023-04-26T01:14:03.257Z,82.7653
2023-04-26T01:15:03.978Z,82.7599
2023-04-26T01:16:04.694Z,82.7399
2023-04-26T01:17:05.340Z,82.7132
2023-04-26T01:18:06.093Z,82.7055
2023-04-26T01:19:06.735Z,82.7018
2023-04-26T01:20:07.422Z,82.6974
2023-04-26T01:21:08.126Z,82.6900
2023-04-26T01:22:08.873Z,82.6961
2023-04-26T01:23:09.535Z,82.6869
2023-04-26T01:24:10.209Z,82.6820
2023-04-26T01:25:10.898Z,82.6699
2023-04-26T01:26:11.595Z,82.6414
2023-04-26T01:27:12.230Z,82.6055
2023-04-26T01:28:12.878Z,82.5519
2023-04-26T01:29:13.598Z,82.4924
2023-04-26T01:30:14.361Z,82.4230
2023-04-26T01:31:15.030Z,82.3479
2023-04-26T01:32:15.734Z,82.2806
2023-04-26T01:33:16.472Z,82.2278
2023-04-26T01:34:17.192Z,82.2047
2023-04-26T01:35:17.916Z,82.1675
2023-04-26T01:36:18.565Z,82.1102
2023-04-26T01:37:19.231Z,82.0469
2023-04-26T01:38:19.963Z,81.9885
2023-04-26T01:39:20.603Z,81.9355
2023-04-26T01:40:21.358Z,81.8876
2023-04-26T01:41:21.984Z,81.8383
2023-04-26T01:42:22.689Z,81.7874
2023-04-26T01:43:23.388Z,81.7309
2023-04-26T01:44:24.053Z,81.6702
2023-04-26T01:45:24.739Z,81.6137
2023-04-26T01:46:25.442Z,81.5710
2023-04-26T01:47:26.121Z,81.5213
2023-04-26T01:48:26.784Z,81.4822
2023-04-26T01:49:27.455Z,81.4572
2023-04-26T01:50:28.122Z,81.4193
2023-04-26T01:51:28.962Z,81.3845
2023-04-26T01:52:29.784Z,81.3509
2023-04-26T01:53:30.531Z,81.3048
2023-04-26T01:54:31.189Z,81.2438
2023-04-26T01:55:31.855Z,81.1704
2023-04-26T01:56:32.666Z,81.0989
2023-04-26T01:57:33.407Z,81.0383
2023-04-26T01:58:34.100Z,80.9914
2023-04-26T01:59:34.737Z,80.9487
2023-04-26T02:00:35.454Z,80.9235
2023-04-26T02:01:36.118Z,80.8992
2023-04-26T02:02:36.945Z,80.8684
2023-04-26T02:03:37.844Z,80.8319
2023-04-26T02:04:38.565Z,80.7987
2023-04-26T02:05:39.194Z,80.7556
2023-04-26T02:06:39.896Z,80.7238
2023-04-26T02:07:40.609Z,80.6929
2023-04-26T02:08:41.247Z,80.6601
2023-04-26T02:09:41.943Z,80.6246
2023-04-26T02:10:42.659Z,80.6178
2023-04-26T02:11:43.358Z,80.6052
2023-04-26T02:12:44.066Z,80.5947
2023-04-26T02:13:44.711Z,80.5913
2023-04-26T02:14:45.361Z,80.5991
2023-04-26T02:15:46.127Z,80.6237
2023-04-26T02:16:46.881Z,80.6573
2023-04-26T02:17:47.547Z,80.7163
2023-04-26T02:18:48.289Z,80.8050
2023-04-26T02:19:48.939Z,81.0494
2023-04-26T02:20:49.650Z,81.2391
2023-04-26T02:21:50.337Z,81.2719
2023-04-26T02:22:50.998Z,81.2877
2023-04-26T02:23:51.629Z,81.3160
2023-04-26T02:24:52.319Z,81.3815
2023-04-26T02:25:52.987Z,81.4086
2023-04-26T02:26:53.682Z,81.4318
2023-04-26T02:27:54.357Z,81.4464
2023-04-26T02:28:55.159Z,81.4437
2023-04-26T02:29:55.846Z,81.4448
2023-04-26T02:30:56.556Z,81.4818
2023-04-26T02:31:57.377Z,81.5478
2023-04-26T02:32:58.092Z,81.6173
2023-04-26T02:33:58.778Z,81.6437
2023-04-26T02:34:59.527Z,81.6733
2023-04-26T02:36:00.186Z,81.6768
2023-04-26T02:37:00.912Z,81.6604
2023-04-26T02:38:01.632Z,81.6442
2023-04-26T02:39:02.325Z,81.6272
2023-04-26T02:40:03.054Z,81.6011
2023-04-26T02:41:03.940Z,81.5754
2023-04-26T02:42:04.708Z,81.5499
2023-04-26T02:43:05.385Z,81.5315
2023-04-26T02:44:06.091Z,81.5143
2023-04-26T02:45:06.854Z,81.5051
2023-04-26T02:46:07.563Z,81.5106
2023-04-26T02:47:08.321Z,81.5156
2023-04-26T02:48:09.083Z,81.5274
2023-04-26T02:49:09.750Z,81.5556
2023-04-26T02:50:10.420Z,81.5976
2023-04-26T02:51:11.104Z,81.6416
2023-04-26T02:52:11.814Z,81.7070
2023-04-26T02:53:12.514Z,81.7774
2023-04-26T02:54:13.252Z,81.8578
2023-04-26T02:55:13.928Z,81.9460
2023-04-26T02:56:14.620Z,82.0327
2023-04-26T02:57:15.287Z,82.1270
2023-04-26T02:58:16.000Z,82.2195
2023-04-26T02:59:16.673Z,82.3072
2023-04-26T03:00:17.399Z,82.4132
2023-04-26T03:01:18.159Z,82.4904
2023-04-26T03:02:18.970Z,82.5622
2023-04-26T03:03:19.910Z,82.6435
2023-04-26T03:04:21.030Z,82.7093
2023-04-26T03:05:21.705Z,82.7796
2023-04-26T03:06:22.428Z,82.8535
2023-04-26T03:07:23.138Z,82.9208
2023-04-26T03:08:23.988Z,82.9802
2023-04-26T03:09:24.606Z,83.0355
2023-04-26T03:10:25.285Z,83.0912
2023-04-26T03:11:26.011Z,83.1321
2023-04-26T03:12:26.123Z,83.1741
2023-04-26T03:13:26.852Z,83.2042
2023-04-26T03:14:27.528Z,83.2396
2023-04-26T03:15:28.216Z,83.2755
2023-04-26T03:16:28.969Z,83.3183
2023-04-26T03:17:29.625Z,83.3570
2023-04-26T03:18:30.363Z,83.3994
2023-04-26T03:19:31.020Z,83.4420
2023-04-26T03:20:31.685Z,83.4926
2023-04-26T03:21:32.357Z,83.5355
2023-04-26T03:22:33.036Z,83.5728
2023-04-26T03:23:33.760Z,83.6093
2023-04-26T03:24:34.448Z,83.6326
2023-04-26T03:25:35.154Z,83.6468
2023-04-26T03:26:35.838Z,83.6513
2023-04-26T03:27:36.506Z,83.6559
2023-04-26T03:28:37.203Z,83.6576
2023-04-26T03:29:37.920Z,83.6583
2023-04-26T03:30:38.621Z,83.6606
2023-04-26T03:31:39.461Z,83.6642
2023-04-26T03:32:40.185Z,83.6707
2023-04-26T03:33:40.787Z,83.6807
2023-04-26T03:34:41.490Z,83.6917
2023-04-26T03:35:42.192Z,83.7015
2023-04-26T03:36:42.927Z,83.7090
2023-04-26T03:37:43.575Z,83.7114
2023-04-26T03:38:44.247Z,83.7053
2023-04-26T03:39:44.952Z,83.6968
2023-04-26T03:40:45.684Z,83.6921
2023-04-26T03:41:46.367Z,83.6799
2023-04-26T03:42:47.122Z,83.6627
2023-04-26T03:43:47.767Z,83.6506
2023-04-26T03:44:48.466Z,83.6434
2023-04-26T03:45:49.148Z,83.6413
2023-04-26T03:46:49.902Z,83.6387
2023-04-26T03:47:50.693Z,83.6366
2023-04-26T03:48:51.703Z,83.6278
2023-04-26T03:49:52.808Z,83.6072
2023-04-26T03:50:53.505Z,83.5768
2023-04-26T03:51:54.181Z,83.5483
2023-04-26T03:52:54.882Z,83.5094
2023-04-26T03:53:55.593Z,83.4589
2023-04-26T03:54:56.264Z,83.3928
2023-04-26T03:55:56.936Z,83.2970
2023-04-26T03:56:57.619Z,83.1961
2023-04-26T03:57:58.534Z,83.0944
2023-04-26T03:58:59.173Z,83.0018
2023-04-26T03:59:59.934Z,82.9178
2023-04-26T04:01:00.571Z,82.8459
2023-04-26T04:02:01.267Z,82.7691
2023-04-26T04:03:02.016Z,82.7065
2023-04-26T04:04:02.935Z,82.6546
2023-04-26T04:05:03.853Z,82.6149
2023-04-26T04:06:04.620Z,82.6036
2023-04-26T04:07:05.308Z,82.6124
2023-04-26T04:08:06.017Z,82.6346
2023-04-26T04:09:06.728Z,82.6639
2023-04-26T04:10:07.401Z,82.7099
2023-04-26T04:11:08.137Z,82.7593
2023-04-26T04:12:08.834Z,82.8160
2023-04-26T04:13:09.547Z,82.8816
2023-04-26T04:14:10.302Z,82.9476
2023-04-26T04:15:10.998Z,82.9975
2023-04-26T04:16:11.756Z,83.0459
2023-04-26T04:17:12.428Z,83.1074
2023-04-26T04:18:13.177Z,83.1692
2023-04-26T04:19:13.888Z,83.2302
2023-04-26T04:20:14.622Z,83.2843
2023-04-26T04:21:15.347Z,83.3277
2023-04-26T04:22:16.071Z,83.3768
2023-04-26T04:23:16.787Z,83.4226
2023-04-26T04:24:17.429Z,83.4613
2023-04-26T04:25:18.108Z,83.4924
2023-04-26T04:26:18.754Z,83.5267
2023-04-26T04:27:19.523Z,83.5690
2023-04-26T04:28:20.174Z,83.6087
2023-04-26T04:29:20.875Z,83.6440
2023-04-26T04:30:21.584Z,83.6771
2023-04-26T04:31:22.363Z,83.7096
2023-04-26T04:32:23.181Z,83.7467
2023-04-26T04:33:23.878Z,83.7688
2023-04-26T04:34:24.575Z,83.7922
2023-04-26T04:35:25.251Z,83.8161
2023-04-26T04:36:25.924Z,83.8430
2023-04-26T04:37:26.615Z,83.8674
2023-04-26T04:38:27.315Z,83.8945
2023-04-26T04:39:27.953Z,83.9171
2023-04-26T04:40:28.663Z,83.9394
2023-04-26T04:41:29.404Z,83.9605
2023-04-26T04:42:30.087Z,83.9790
2023-04-26T04:43:31.087Z,83.9940
2023-04-26T04:44:31.885Z,84.0067
2023-04-26T04:45:32.574Z,84.0208
2023-04-26T04:46:33.312Z,84.0344
2023-04-26T04:47:34.247Z,84.0521
2023-04-26T04:48:34.995Z,84.0660
2023-04-26T04:49:35.710Z,84.0687
2023-04-26T04:50:36.394Z,84.0818
2023-04-26T04:51:37.122Z,84.0889
2023-04-26T04:52:37.923Z,84.0972
2023-04-26T04:53:38.638Z,84.1237
2023-04-26T04:54:39.250Z,84.1415
2023-04-26T04:55:39.980Z,84.1612
2023-04-26T04:56:40.622Z,84.1716
2023-04-26T04:57:43.117Z,84.1875
2023-04-26T04:58:43.948Z,84.1961
2023-04-26T04:59:44.737Z,84.2007
2023-04-26T05:00:45.412Z,84.2075
2023-04-26T05:01:46.134Z,84.2107
2023-04-26T05:02:46.951Z,84.2184
2023-04-26T05:03:47.776Z,84.2230
2023-04-26T05:04:48.541Z,84.2317
2023-04-26T05:05:49.294Z,84.2356
2023-04-26T05:06:50.039Z,84.2407
2023-04-26T05:07:50.900Z,84.2467
2023-04-26T05:08:51.628Z,84.2562
2023-04-26T05:09:52.325Z,84.2566
2023-04-26T05:10:52.958Z,84.2557
2023-04-26T05:11:53.620Z,84.2525
2023-04-26T05:12:54.340Z,84.2553
2023-04-26T05:13:55.592Z,84.2580
2023-04-26T05:14:56.699Z,84.2577
2023-04-26T05:15:57.503Z,84.2669
2023-04-26T05:16:58.205Z,84.2729
2023-04-26T05:17:58.966Z,84.2715
2023-04-26T05:18:59.670Z,84.2686
2023-04-26T05:20:00.494Z,84.2659
2023-04-26T05:21:01.201Z,84.2675
2023-04-26T05:22:01.907Z,84.2582
2023-04-26T05:23:02.626Z,84.2616
2023-04-26T05:24:03.363Z,84.2548
2023-04-26T05:25:04.064Z,84.2476
2023-04-26T05:26:04.747Z,84.2407
2023-04-26T05:27:05.443Z,84.2298
2023-04-26T05:28:06.144Z,84.2212
2023-04-26T05:29:06.811Z,84.2056
2023-04-26T05:30:07.454Z,84.1924
2023-04-26T05:31:10.632Z,84.1795
2023-04-26T05:32:09.354Z,84.1678
2023-04-26T05:33:10.073Z,84.1507
2023-04-26T05:34:10.743Z,84.1364
2023-04-26T05:35:11.397Z,84.1198
2023-04-26T05:36:12.083Z,84.1085
2023-04-26T05:37:12.742Z,84.0900
2023-04-26T05:38:13.485Z,84.0731
2023-04-26T05:39:14.157Z,84.0539
2023-04-26T05:40:14.837Z,84.0304
2023-04-26T05:41:15.570Z,84.0008
2023-04-26T05:42:17.855Z,83.9714
2023-04-26T05:43:19.136Z,83.9535
2023-04-26T05:44:19.928Z,83.9475
2023-04-26T05:45:20.626Z,83.9440
2023-04-26T05:46:21.607Z,83.9431
2023-04-26T05:47:22.613Z,83.9428
2023-04-26T05:48:23.331Z,83.9323
2023-04-26T05:49:24.017Z,83.8847
2023-04-26T05:50:24.749Z,83.8441
2023-04-26T05:51:25.456Z,83.8033
2023-04-26T05:52:26.179Z,83.7780
2023-04-26T05:53:26.923Z,83.7577
2023-04-26T05:54:27.628Z,83.7362
2023-04-26T05:55:28.367Z,83.7049
2023-04-26T05:56:29.121Z,83.6860
2023-04-26T05:57:29.943Z,83.6631
2023-04-26T05:58:30.662Z,83.6384
2023-04-26T05:59:31.376Z,83.6097
2023-04-26T06:00:32.108Z,83.5813
2023-04-26T06:01:32.873Z,83.5544
2023-04-26T06:02:33.876Z,83.5363
2023-04-26T06:03:35.151Z,83.5165
2023-04-26T06:04:36.191Z,83.5015
2023-04-26T06:05:36.944Z,83.4782
2023-04-26T06:06:37.785Z,83.3853
2023-04-26T06:07:38.499Z,83.2893
2023-04-26T06:08:39.229Z,83.1925
2023-04-26T06:09:39.935Z,83.1081
2023-04-26T06:10:40.673Z,83.0012
2023-04-26T06:11:41.321Z,82.9158
2023-04-26T06:12:42.056Z,82.8364
2023-04-26T06:13:43.126Z,82.7498
2023-04-26T06:14:43.946Z,82.6709
2023-04-26T06:15:44.605Z,82.5856
2023-04-26T06:16:45.428Z,82.4773
2023-04-26T06:17:46.132Z,82.3512
2023-04-26T06:18:46.902Z,82.1650
2023-04-26T06:19:47.698Z,81.9337
2023-04-26T06:20:48.440Z,81.7848
2023-04-26T06:21:49.169Z,81.6180
2023-04-26T06:22:49.939Z,81.4299
2023-04-26T06:23:50.942Z,81.3089
2023-04-26T06:24:52.004Z,81.2040
2023-04-26T06:25:52.669Z,81.0860
2023-04-26T06:26:53.414Z,80.8233
2023-04-26T06:27:54.163Z,80.6228
2023-04-26T06:28:54.890Z,80.3807
2023-04-26T06:29:55.605Z,80.1399
2023-04-26T06:30:56.450Z,79.9533
2023-04-26T06:31:57.173Z,79.8565
2023-04-26T06:32:58.032Z,79.7993
2023-04-26T06:33:58.779Z,79.7643
2023-04-26T06:34:59.509Z,79.7263
2023-04-26T06:36:00.223Z,79.6753
2023-04-26T06:37:00.994Z,79.5306
2023-04-26T06:38:01.689Z,79.3653
2023-04-26T06:39:02.419Z,79.2456
2023-04-26T06:40:03.124Z,79.1248
2023-04-26T06:41:03.863Z,79.0089
2023-04-26T06:42:04.633Z,78.9425
2023-04-26T06:43:05.370Z,78.8953
2023-04-26T06:44:06.126Z,78.7940
2023-04-26T06:45:06.881Z,78.6538
2023-04-26T06:46:07.602Z,78.5668
2023-04-26T06:47:08.311Z,78.4579
2023-04-26T06:48:09.098Z,78.3565
2023-04-26T06:49:09.870Z,78.2266
2023-04-26T06:50:10.614Z,78.0751
2023-04-26T06:51:11.390Z,77.9207
2023-04-26T06:52:12.215Z,77.8753
2023-04-26T06:53:12.922Z,77.8577
2023-04-26T06:54:13.708Z,77.7091
2023-04-26T06:55:14.442Z,77.5248
2023-04-26T06:56:15.133Z,77.4350
2023-04-26T06:57:15.874Z,77.4397
2023-04-26T06:58:16.824Z,77.4963
2023-04-26T06:59:17.572Z,77.5666
2023-04-26T07:00:18.317Z,77.6222
2023-04-26T07:01:19.069Z,77.6528
2023-04-26T07:02:20.068Z,77.6254
2023-04-26T07:03:21.033Z,77.5897
2023-04-26T07:04:22.047Z,77.5685
2023-04-26T07:05:22.911Z,77.5743
2023-04-26T07:06:23.677Z,77.5958
2023-04-26T07:07:24.355Z,77.6325
2023-04-26T07:08:25.100Z,77.6696
2023-04-26T07:09:25.804Z,77.7044
2023-04-26T07:10:26.535Z,77.7170
2023-04-26T07:11:27.270Z,77.7212
2023-04-26T07:12:27.960Z,77.7201
2023-04-26T07:13:28.658Z,77.6105
2023-04-26T07:14:29.343Z,77.4103
2023-04-26T07:15:30.041Z,77.2710
2023-04-26T07:16:30.803Z,77.1783
2023-04-26T07:17:31.600Z,76.8937
2023-04-26T07:18:32.323Z,76.5798
2023-04-26T07:19:33.093Z,76.4888
2023-04-26T07:20:33.871Z,76.0309
2023-04-26T07:21:34.570Z,75.5359
2023-04-26T07:22:35.296Z,75.2295
2023-04-26T07:23:36.090Z,75.1184
2023-04-26T07:24:36.774Z,74.9764
2023-04-26T07:25:37.488Z,74.9828
2023-04-26T07:26:38.208Z,75.1241
2023-04-26T07:27:38.967Z,75.2775
2023-04-26T07:28:39.688Z,75.4313
2023-04-26T07:29:40.435Z,75.3902
2023-04-26T07:30:41.145Z,75.4061
2023-04-26T07:31:41.817Z,75.4759
2023-04-26T07:32:42.659Z,75.5688
2023-04-26T07:33:43.505Z,75.6958
2023-04-26T07:34:44.251Z,75.7657
2023-04-26T07:35:44.988Z,75.7904
2023-04-26T07:36:45.705Z,75.7936
2023-04-26T07:37:46.412Z,75.6941
2023-04-26T07:38:47.179Z,75.5851
2023-04-26T07:39:47.837Z,75.6024
2023-04-26T07:40:48.567Z,75.5688
2023-04-26T07:41:49.238Z,75.4753
2023-04-26T07:42:49.975Z,75.3020
2023-04-26T07:43:50.882Z,75.1257
2023-04-26T07:44:51.973Z,74.9802
2023-04-26T07:45:52.727Z,74.8538
2023-04-26T07:46:53.416Z,74.7713
2023-04-26T07:47:54.781Z,74.6789
2023-04-26T07:48:55.884Z,74.4598
2023-04-26T07:49:56.603Z,74.2503
2023-04-26T07:50:57.327Z,73.9764
2023-04-26T07:51:58.023Z,73.5137
2023-04-26T07:52:58.769Z,73.1714
2023-04-26T07:53:59.440Z,73.0756
2023-04-26T07:55:00.161Z,72.8115
2023-04-26T07:56:00.882Z,72.7419
2023-04-26T07:57:01.636Z,72.7499
2023-04-26T07:58:02.314Z,72.8540
2023-04-26T07:59:03.053Z,73.0461
2023-04-26T08:00:03.744Z,73.1366
2023-04-26T08:01:04.443Z,73.1159
2023-04-26T08:02:05.199Z,73.1121
2023-04-26T08:03:06.108Z,73.0945
2023-04-26T08:04:07.435Z,73.0650
2023-04-26T08:05:08.445Z,72.8401
2023-04-26T08:06:09.233Z,72.5983
2023-04-26T08:07:09.968Z,72.6502
2023-04-26T08:08:10.616Z,72.5549
2023-04-26T08:09:12.499Z,72.5596
2023-04-26T08:10:13.331Z,72.6600
2023-04-26T08:11:14.082Z,72.7583
2023-04-26T08:12:14.830Z,72.8069
2023-04-26T08:13:15.509Z,72.6989
2023-04-26T08:14:16.399Z,72.6340
2023-04-26T08:15:17.103Z,72.5055
2023-04-26T08:16:17.830Z,72.2799
2023-04-26T08:17:18.568Z,72.2636
2023-04-26T08:18:19.292Z,72.4342
2023-04-26T08:19:20.069Z,72.5815
2023-04-26T08:20:20.769Z,72.6770
2023-04-26T08:21:21.510Z,72.7653
2023-04-26T08:22:22.254Z,72.7585
2023-04-26T08:23:22.983Z,72.6930
2023-04-26T08:24:23.884Z,72.5556
2023-04-26T08:25:24.768Z,72.2786
2023-04-26T08:26:25.494Z,72.1537
2023-04-26T08:27:26.236Z,72.1628
2023-04-26T08:28:26.925Z,72.2215
2023-04-26T08:29:27.684Z,72.3222
2023-04-26T08:30:28.411Z,72.4236
2023-04-26T08:31:29.256Z,72.5607
2023-04-26T08:32:30.066Z,72.7033
2023-04-26T08:33:30.762Z,72.8153
2023-04-26T08:34:31.505Z,72.8594
2023-04-26T08:35:32.271Z,72.9219
2023-04-26T08:36:32.962Z,73.0219
2023-04-26T08:37:33.660Z,73.0748
2023-04-26T08:38:34.426Z,72.9746
2023-04-26T08:39:35.160Z,72.9607
2023-04-26T08:40:35.885Z,73.0427
2023-04-26T08:41:36.595Z,73.1148
2023-04-26T08:42:38.002Z,73.1509
2023-04-26T08:43:38.976Z,73.1566
2023-04-26T08:44:39.674Z,73.1792
2023-04-26T08:45:40.495Z,73.1146
2023-04-26T08:46:41.226Z,72.9878
2023-04-26T08:47:42.022Z,72.8960
2023-04-26T08:48:42.727Z,72.8892
2023-04-26T08:49:43.443Z,72.9138
2023-04-26T08:50:44.109Z,72.8778
2023-04-26T08:51:44.855Z,72.8260
2023-04-26T08:52:45.632Z,72.8254
2023-04-26T08:53:46.298Z,72.8374
2023-04-26T08:54:47.036Z,72.7973
2023-04-26T08:55:47.724Z,72.8254
2023-04-26T08:56:48.415Z,72.8492
2023-04-26T08:57:49.105Z,72.8887
2023-04-26T08:58:49.790Z,72.8027
2023-04-26T08:59:50.524Z,72.7685
2023-04-26T09:00:51.383Z,72.7085
2023-04-26T09:01:52.119Z,72.5964
2023-04-26T09:02:53.197Z,72.5271
2023-04-26T09:03:54.585Z,72.3101
2023-04-26T09:04:55.973Z,71.9304
2023-04-26T09:05:56.930Z,71.9091
2023-04-26T09:06:57.652Z,71.8731
2023-04-26T09:07:58.344Z,71.9041
2023-04-26T09:08:59.036Z,72.0680
2023-04-26T09:09:59.840Z,72.2777
2023-04-26T09:11:00.531Z,72.4438
2023-04-26T09:12:01.230Z,72.6058
2023-04-26T09:13:01.957Z,72.5925
2023-04-26T09:14:02.662Z,72.5638
2023-04-26T09:15:03.372Z,72.6141
2023-04-26T09:16:05.267Z,72.8067
2023-04-26T09:17:06.323Z,72.9184
2023-04-26T09:18:07.043Z,72.9252
2023-04-26T09:19:07.769Z,72.7565
2023-04-26T09:20:08.608Z,72.5654
2023-04-26T09:21:09.305Z,72.2999
2023-04-26T09:22:10.026Z,72.1879
2023-04-26T09:23:10.736Z,71.9847
2023-04-26T09:24:11.404Z,71.7224
2023-04-26T09:25:12.103Z,71.4719
2023-04-26T09:26:12.791Z,71.1536
2023-04-26T09:27:13.509Z,70.8953
2023-04-26T09:28:14.182Z,70.9548
2023-04-26T09:29:14.970Z,70.9569
2023-04-26T09:30:15.665Z,70.7022
2023-04-26T09:31:16.399Z,70.4934
2023-04-26T09:32:17.079Z,69.7912
2023-04-26T09:33:17.897Z,69.8074
2023-04-26T09:34:18.568Z,69.8781
2023-04-26T09:35:19.278Z,69.7386
2023-04-26T09:36:19.946Z,69.4434
2023-04-26T09:37:20.627Z,69.3892
2023-04-26T09:38:21.364Z,69.3966
2023-04-26T09:39:22.031Z,69.0122
2023-04-26T09:40:22.788Z,68.4154
2023-04-26T09:41:23.518Z,68.0932
2023-04-26T09:42:24.192Z,67.7305
2023-04-26T09:43:24.826Z,67.2809
2023-04-26T09:44:25.469Z,66.9546
2023-04-26T09:45:26.119Z,66.9490
2023-04-26T09:46:26.843Z,66.6006
2023-04-26T09:47:27.474Z,66.6075
2023-04-26T09:48:28.113Z,66.7056
2023-04-26T09:49:28.766Z,66.3576
2023-04-26T09:50:29.459Z,65.7314
2023-04-26T09:51:30.145Z,65.2053
2023-04-26T09:52:30.792Z,65.1007
2023-04-26T09:53:31.434Z,64.6841
2023-04-26T09:54:32.046Z,64.3977
2023-04-26T09:55:35.468Z,64.3166
2023-04-26T09:56:33.819Z,63.7691
2023-04-26T09:57:34.472Z,63.6824
2023-04-26T09:58:35.093Z,64.0412
2023-04-26T09:59:35.725Z,64.1932
2023-04-26T10:00:36.386Z,64.0769
2023-04-26T10:01:37.088Z,64.1092
2023-04-26T10:02:37.808Z,64.1271
2023-04-26T10:03:38.798Z,64.0572
2023-04-26T10:04:39.788Z,63.8064
2023-04-26T10:05:40.455Z,62.8820
2023-04-26T10:06:41.147Z,62.8347
2023-04-26T10:07:41.875Z,63.1558
2023-04-26T10:08:42.570Z,63.1649
2023-04-26T10:09:43.208Z,63.1451
2023-04-26T10:10:43.929Z,63.2332
2023-04-26T10:11:44.576Z,62.9562
2023-04-26T10:12:45.264Z,61.9490
2023-04-26T10:13:45.991Z,61.2962
2023-04-26T10:14:46.694Z,61.3775
2023-04-26T10:15:47.406Z,61.6724
2023-04-26T10:16:48.112Z,62.1028
2023-04-26T10:17:50.239Z,62.3506
2023-04-26T10:18:50.185Z,62.2188
2023-04-26T10:19:50.939Z,61.7383
2023-04-26T10:20:51.609Z,61.0178
2023-04-26T10:21:52.289Z,60.2571
2023-04-26T10:22:52.963Z,60.2783
2023-04-26T10:23:53.700Z,60.5956
2023-04-26T10:24:54.391Z,60.5134
2023-04-26T10:25:55.082Z,60.4922
2023-04-26T10:26:55.810Z,60.6988
2023-04-26T10:27:56.525Z,61.0006
2023-04-26T10:29:02.098Z,61.2406
2023-04-26T10:29:58.330Z,61.2499
2023-04-26T10:30:58.996Z,61.3530
2023-04-26T10:31:59.653Z,61.0156
2023-04-26T10:33:00.331Z,60.5806
2023-04-26T10:34:00.948Z,60.7093
2023-04-26T10:35:01.621Z,60.6751
2023-04-26T10:36:02.260Z,61.0785
2023-04-26T10:37:02.995Z,60.7610
2023-04-26T10:38:03.638Z,60.1230
2023-04-26T10:39:04.261Z,59.8488
2023-04-26T10:40:04.863Z,59.7093
2023-04-26T10:41:05.545Z,59.3122
2023-04-26T10:42:06.171Z,58.2941
2023-04-26T10:43:06.806Z,57.9717
2023-04-26T10:44:07.421Z,56.9977
2023-04-26T10:45:08.054Z,55.9573
2023-04-26T10:46:08.695Z,56.6313
2023-04-26T10:47:09.284Z,56.7394
2023-04-26T10:48:09.964Z,56.1958
2023-04-26T10:49:10.589Z,55.7351
2023-04-26T10:50:11.215Z,54.5472
2023-04-26T10:51:11.958Z,54.3529
2023-04-26T10:52:12.554Z,53.4954
2023-04-26T10:53:13.198Z,54.0178
2023-04-26T10:54:13.836Z,53.6319
2023-04-26T10:55:14.469Z,53.2443
2023-04-26T10:56:15.083Z,52.9885
2023-04-26T10:57:15.716Z,51.6847
2023-04-26T10:58:16.323Z,50.6752
2023-04-26T10:59:36.125Z,51.4686
2023-04-26T11:00:18.001Z,51.9648
2023-04-26T11:01:18.751Z,52.4702
2023-04-26T11:02:19.408Z,52.7520
2023-04-26T11:03:20.104Z,51.6701
2023-04-26T11:04:20.897Z,51.2943
2023-04-26T11:05:23.557Z,51.0826
2023-04-26T11:06:22.670Z,50.7497
2023-04-26T11:07:23.291Z,50.2250
2023-04-26T11:08:23.934Z,50.1437
2023-04-26T11:09:24.552Z,50.0446
2023-04-26T11:10:25.219Z,49.7582
2023-04-26T11:11:25.905Z,48.7844
2023-04-26T11:12:26.586Z,46.8623
2023-04-26T11:13:27.211Z,45.4793
2023-04-26T11:14:27.872Z,45.4511
2023-04-26T11:15:28.506Z,45.0511
2023-04-26T11:16:29.302Z,44.8781
2023-04-26T11:17:30.002Z,44.8252
2023-04-26T11:18:30.629Z,45.1225
2023-04-26T11:19:31.256Z,45.8189
2023-04-26T11:20:31.830Z,46.7024
2023-04-26T11:21:32.444Z,47.0513
2023-04-26T11:22:33.023Z,46.0832
2023-04-26T11:23:33.849Z,46.5539
2023-04-26T11:24:34.448Z,46.7752
2023-04-26T11:25:35.041Z,45.7753
2023-04-26T11:26:35.652Z,44.9700
2023-04-26T11:27:36.163Z,44.1130
2023-04-26T11:28:36.737Z,43.8136
2023-04-26T11:29:37.331Z,43.4147
2023-04-26T11:30:38.506Z,42.9971
2023-04-26T11:31:39.460Z,43.3481
2023-04-26T11:32:40.120Z,43.6545
2023-04-26T11:33:40.699Z,42.7583
2023-04-26T11:34:41.297Z,43.2603
2023-04-26T11:35:41.869Z,42.9958
2023-04-26T11:36:42.473Z,43.4714
2023-04-26T11:37:43.051Z,44.0252
2023-04-26T11:38:43.694Z,43.2570
2023-04-26T11:39:44.318Z,41.6710
2023-04-26T11:40:44.867Z,42.6373
2023-04-26T11:41:45.436Z,42.7871
2023-04-26T11:42:46.029Z,40.2665
2023-04-26T11:43:46.634Z,38.5175
2023-04-26T11:44:47.879Z,39.3464
2023-04-26T11:45:48.608Z,39.5725
2023-04-26T11:46:49.291Z,38.5604
2023-04-26T11:47:49.899Z,36.7650
2023-04-26T11:48:50.425Z,36.3734
2023-04-26T11:49:51.070Z,36.6390
2023-04-26T11:50:51.614Z,36.7749
2023-04-26T11:51:52.218Z,36.6440
2023-04-26T11:52:52.773Z,37.3241
2023-04-26T11:53:53.318Z,38.0482
2023-04-26T11:54:53.869Z,38.1907
2023-04-26T11:55:54.459Z,39.4232
2023-04-26T11:56:55.050Z,40.4581
2023-04-26T11:57:55.865Z,41.2296
2023-04-26T11:58:56.834Z,41.3917
2023-04-26T11:59:57.639Z,41.0307
2023-04-26T12:00:58.213Z,40.8730
2023-04-26T12:01:58.936Z,40.6152
2023-04-26T12:02:59.715Z,40.7243
2023-04-26T12:04:00.792Z,40.9972
2023-04-26T12:05:01.822Z,41.1252
2023-04-26T12:06:02.545Z,41.5671
2023-04-26T12:07:03.113Z,38.8875
2023-04-26T12:08:03.681Z,37.7732
2023-04-26T12:09:04.258Z,37.3656
2023-04-26T12:10:04.880Z,37.7956
2023-04-26T12:11:05.497Z,37.7685
2023-04-26T12:12:06.092Z,38.2167
2023-04-26T12:13:06.695Z,39.1982
2023-04-26T12:14:07.377Z,39.8556